Home   Weather   City of London   Past weeks
Flag for United Kingdom

Past Weather in City of London, England, United Kingdom — Yesterday and Last 2 Weeks

Currently: 46 °F. Broken clouds. (Weather station: Northolt, United Kingdom). See more current weather

Past Weather in City of London — Graph

°F

City of London Temperature Yesterday

Maximum temperature yesterday: 50 °F (at 2:20 pm)
Minimum temperature yesterday: 36 °F (at 9:50 pm)
Average temperature yesterday: 42 °F

High & Low Weather Summary for the Past Weeks

 TemperatureHumidityPressure
High63 °F (Feb 15, 1:20 pm)100% (Feb 10, 4:50 am)30.45 "Hg (Feb 10, 4:50 am)
Low28 °F (Feb 24, 5:50 am)50% (Feb 12, 2:20 pm)28.80 "Hg (Feb 22, 1:50 pm)
Average49 °F86%29.72 "Hg
* Reported Feb 9 12:20 pm — Feb 24 12:20 pm, City of London. Weather by CustomWeather, © 2024

Note: Actual official high and low records may vary slightly from our data, if they occured in-between our weather recording intervals... More about our weather records

City of London Weather History for the Previous 24 Hours

Scroll right to see more
 ConditionsComfort  
Time TempWeatherWind HumidityBarometerVisibility
12:20 pm
Sat, Feb 24
45 °FPartly sunny.3 mph76%29.39 "HgN/A
11:50 am45 °FPartly sunny.2 mph76%29.39 "HgN/A
11:20 am43 °FPartly sunny.2 mph81%29.39 "HgN/A
10:50 am43 °FPartly sunny.2 mph81%29.39 "HgN/A
10:20 am43 °FPartly sunny.2 mph87%29.39 "HgN/A
9:50 am37 °FPartly sunny.1 mph100%29.36 "HgN/A
9:20 am36 °FPassing clouds.1 mph100%29.36 "HgN/A
8:50 am32 °FPassing clouds.1 mph100%29.36 "HgN/A
8:20 am30 °FPassing clouds.1 mph93%29.36 "HgN/A
7:50 am28 °FIce fog.No wind93%29.36 "Hg5 mi
7:20 am28 °FFog.1 mph100%29.33 "HgN/A
6:50 am28 °FFog.1 mph93%29.33 "Hg1 mi
6:20 am30 °FClear.2 mph93%29.33 "Hg6 mi
5:50 am28 °FFog.No wind93%29.33 "Hg0 mi
5:20 am30 °FIce fog.2 mph100%29.30 "HgN/A
4:50 am30 °FIce fog.1 mph93%29.30 "Hg5 mi
4:20 am30 °FIce fog.2 mph93%29.30 "HgN/A
3:50 am30 °FIce fog.2 mph93%29.27 "HgN/A
3:20 am30 °FIce fog.1 mph100%29.27 "HgN/A
2:50 am30 °FIce fog.2 mph100%29.27 "Hg6 mi
2:20 am32 °FIce fog.1 mph93%29.27 "Hg6 mi
1:50 am32 °FChilly.1 mph100%29.27 "HgN/A
1:20 am32 °FChilly.6 mph100%29.27 "HgN/A
12:50 am34 °FChilly.2 mph93%29.27 "HgN/A
11:20 pm
Fri, Feb 23
36 °FPassing clouds.2 mph93%29.24 "HgN/A
10:50 pm36 °FPassing clouds.3 mph100%29.24 "HgN/A
10:20 pm36 °FOvercast.5 mph100%29.24 "HgN/A
9:50 pm36 °FPassing clouds.1 mph93%29.24 "HgN/A
9:20 pm37 °FPassing clouds.1 mph93%29.21 "HgN/A
8:50 pm37 °FOvercast.5 mph93%29.21 "HgN/A
8:20 pm39 °FClear.2 mph93%29.21 "Hg10 mi
7:50 pm39 °FOvercast.3 mph93%29.21 "HgN/A
7:20 pm39 °FClear.3 mph93%29.21 "Hg10 mi
6:50 pm41 °FPassing clouds.6 mph87%29.18 "HgN/A
6:20 pm41 °FPassing clouds.5 mph93%29.18 "HgN/A
5:50 pm41 °FPartly cloudy.5 mph87%29.15 "HgN/A
5:20 pm41 °FRain showers. Broken clouds.5 mph87%29.15 "HgN/A
4:50 pm41 °FSprinkles. Broken clouds.5 mph87%29.15 "HgN/A
4:20 pm43 °FMore clouds than sun.10 mph81%29.15 "HgN/A
3:50 pm43 °FSprinkles. Partly sunny.12 mph81%29.12 "HgN/A
3:20 pm46 °FPartly sunny.9 mph66%29.12 "HgN/A
2:50 pm48 °FScattered clouds.9 mph58%29.12 "HgN/A
2:20 pm50 °FBroken clouds.10 mph58%29.12 "HgN/A
1:50 pm48 °FBroken clouds.9 mph62%29.12 "HgN/A
1:20 pm48 °FBroken clouds.9 mph62%29.12 "HgN/A
Weather by CustomWeather, © 2024

See weather overview